createdAt,value
2023-05-12T00:00:33.741Z,5.57
2023-05-12T00:03:12.822Z,5.51
2023-05-12T00:05:41.056Z,5.48
2023-05-12T00:08:09.216Z,5.45
2023-05-12T00:10:37.391Z,5.38
2023-05-12T00:13:05.765Z,5.32
2023-05-12T00:15:33.852Z,5.28
2023-05-12T00:18:02.036Z,5.23
2023-05-12T00:20:30.193Z,5.22
2023-05-12T00:22:58.359Z,5.21
2023-05-12T00:25:26.539Z,5.24
2023-05-12T00:27:54.819Z,5.22
2023-05-12T00:30:22.985Z,5.18
2023-05-12T00:32:51.752Z,5.13
2023-05-12T00:35:19.953Z,5.09
2023-05-12T00:37:48.127Z,5.05
2023-05-12T00:40:16.411Z,5.00
2023-05-12T00:42:44.778Z,4.97
2023-05-12T00:45:13.060Z,4.97
2023-05-12T00:47:41.705Z,4.94
2023-05-12T00:50:11.068Z,4.90
2023-05-12T00:52:39.219Z,4.89
2023-05-12T00:55:08.217Z,4.89
2023-05-12T00:57:36.796Z,4.91
2023-05-12T01:00:07.575Z,4.96
2023-05-12T01:02:36.720Z,5.05
2023-05-12T01:05:05.927Z,5.18
2023-05-12T01:07:34.312Z,5.29
2023-05-12T01:10:02.795Z,5.37
2023-05-12T01:12:34.861Z,5.43
2023-05-12T01:15:04.368Z,5.48
2023-05-12T01:17:35.209Z,5.54
2023-05-12T01:20:07.112Z,5.60
2023-05-12T01:22:37.687Z,5.62
2023-05-12T01:25:10.102Z,5.66
2023-05-12T01:27:40.986Z,5.74
2023-05-12T01:30:12.932Z,5.78
2023-05-12T01:32:42.694Z,5.83
2023-05-12T01:35:11.680Z,5.84
2023-05-12T01:37:43.635Z,5.86
2023-05-12T01:40:12.523Z,5.89
2023-05-12T01:42:42.752Z,5.89
2023-05-12T01:45:12.444Z,5.88
2023-05-12T01:47:40.974Z,5.94
2023-05-12T01:50:10.855Z,5.96
2023-05-12T01:52:39.426Z,5.97
2023-05-12T01:55:11.494Z,5.95
2023-05-12T01:57:46.527Z,5.94
2023-05-12T02:00:15.415Z,5.94
2023-05-12T02:02:43.568Z,5.92
2023-05-12T02:05:13.505Z,5.93
2023-05-12T02:07:42.709Z,5.99
2023-05-12T02:10:11.332Z,6.02
2023-05-12T02:12:39.568Z,6.04
2023-05-12T02:15:08.463Z,6.05
2023-05-12T02:17:38.303Z,6.06
2023-05-12T02:20:07.677Z,6.06
2023-05-12T02:22:35.685Z,6.08
2023-05-12T02:25:04.634Z,6.14
2023-05-12T02:27:32.806Z,6.14
2023-05-12T02:30:01.496Z,6.15
2023-05-12T02:32:29.950Z,6.15
2023-05-12T02:34:58.256Z,6.16
2023-05-12T02:37:26.934Z,6.16
2023-05-12T02:39:55.109Z,6.19
2023-05-12T02:42:23.288Z,6.24
2023-05-12T02:44:51.355Z,6.27
2023-05-12T02:47:19.537Z,6.27
2023-05-12T02:49:47.603Z,6.27
2023-05-12T02:52:15.883Z,6.28
2023-05-12T02:54:44.098Z,6.27
2023-05-12T02:57:12.431Z,6.29
2023-05-12T02:59:40.933Z,6.35
2023-05-12T03:02:09.355Z,6.39
2023-05-12T03:04:37.675Z,6.42
2023-05-12T03:07:07.367Z,6.45
2023-05-12T03:09:36.183Z,6.47
2023-05-12T03:12:04.979Z,6.51
2023-05-12T03:14:33.555Z,6.57
2023-05-12T03:17:01.764Z,6.64
2023-05-12T03:19:30.109Z,6.78
2023-05-12T03:21:58.278Z,6.90
2023-05-12T03:24:26.967Z,7.03
2023-05-12T03:26:55.656Z,7.14
2023-05-12T03:29:24.838Z,7.28
2023-05-12T03:31:53.400Z,7.42
2023-05-12T03:34:22.110Z,7.54
2023-05-12T03:36:50.292Z,7.69
2023-05-12T03:39:18.571Z,7.90
2023-05-12T03:41:46.861Z,8.09
2023-05-12T03:44:14.891Z,8.26
2023-05-12T03:46:43.056Z,8.41
2023-05-12T03:49:11.568Z,8.59
2023-05-12T03:51:40.368Z,8.76
2023-05-12T03:54:08.841Z,8.94
2023-05-12T03:56:37.145Z,9.14
2023-05-12T03:59:05.293Z,9.36
2023-05-12T04:01:34.617Z,9.55
2023-05-12T04:04:03.014Z,9.71
2023-05-12T04:06:31.971Z,9.86
2023-05-12T04:09:00.048Z,10.01
2023-05-12T04:11:28.307Z,10.14
2023-05-12T04:13:57.101Z,10.29
2023-05-12T04:16:25.316Z,10.43
2023-05-12T04:18:53.623Z,10.61
2023-05-12T04:21:21.821Z,10.82
2023-05-12T04:23:53.177Z,11.02
2023-05-12T04:26:22.296Z,11.17
2023-05-12T04:28:50.458Z,11.31
2023-05-12T04:31:18.546Z,11.42
2023-05-12T04:33:48.381Z,11.60
2023-05-12T04:36:16.914Z,11.75
2023-05-12T04:38:45.298Z,11.92
2023-05-12T04:41:13.603Z,12.07
2023-05-12T04:46:13.428Z,12.41
2023-05-12T04:48:43.450Z,12.60
2023-05-12T04:51:11.616Z,12.75
2023-05-12T04:53:39.775Z,12.90
2023-05-12T04:56:08.358Z,13.02
2023-05-12T04:58:39.396Z,13.11
2023-05-12T05:01:08.549Z,13.28
2023-05-12T05:03:37.074Z,13.37
2023-05-12T05:06:05.662Z,13.52
2023-05-12T05:08:34.556Z,13.69
2023-05-12T05:11:02.743Z,13.81
2023-05-12T05:13:32.045Z,14.02
2023-05-12T05:16:00.567Z,14.23
2023-05-12T05:18:29.538Z,14.34
2023-05-12T05:20:59.070Z,14.53
2023-05-12T05:23:27.811Z,14.79
2023-05-12T05:25:56.884Z,14.90
2023-05-12T05:28:26.717Z,15.06
2023-05-12T05:30:57.180Z,14.98
2023-05-12T05:33:25.505Z,15.23
2023-05-12T05:35:53.551Z,15.32
2023-05-12T05:38:22.670Z,15.55
2023-05-12T05:40:54.107Z,15.82
2023-05-12T05:43:24.473Z,16.08
2023-05-12T05:45:53.152Z,16.21
2023-05-12T05:48:23.042Z,16.25
2023-05-12T05:50:52.250Z,16.27
2023-05-12T05:53:23.421Z,16.28
2023-05-12T05:55:52.380Z,16.29
2023-05-12T05:58:20.597Z,16.31
2023-05-12T06:00:50.063Z,16.52
2023-05-12T06:03:18.530Z,16.79
2023-05-12T06:06:09.553Z,16.96
2023-05-12T06:08:39.792Z,17.23
2023-05-12T06:11:08.335Z,17.31
2023-05-12T06:13:36.739Z,17.31
2023-05-12T06:16:05.887Z,17.49
2023-05-12T06:18:39.881Z,17.69
2023-05-12T06:21:08.460Z,17.91
2023-05-12T06:23:36.822Z,18.00
2023-05-12T06:26:07.869Z,18.14
2023-05-12T06:28:36.120Z,18.13
2023-05-12T06:31:08.906Z,18.01
2023-05-12T06:33:37.116Z,17.90
2023-05-12T06:36:06.180Z,17.92
2023-05-12T06:38:34.408Z,18.17
2023-05-12T06:41:02.734Z,18.41
2023-05-12T06:43:30.924Z,18.49
2023-05-12T06:45:59.252Z,18.65
2023-05-12T06:48:27.596Z,18.76
2023-05-12T06:50:57.475Z,18.59
2023-05-12T06:53:30.070Z,18.63
2023-05-12T06:55:58.330Z,18.62
2023-05-12T06:58:26.500Z,18.47
2023-05-12T07:00:54.580Z,18.31
2023-05-12T07:03:23.327Z,18.54
2023-05-12T07:05:52.293Z,18.80
2023-05-12T07:08:20.530Z,18.83
2023-05-12T07:10:48.706Z,19.04
2023-05-12T07:13:16.932Z,19.04
2023-05-12T07:15:45.186Z,18.67
2023-05-12T07:18:13.940Z,18.70
2023-05-12T07:20:42.125Z,18.14
2023-05-12T07:23:10.148Z,18.05
2023-05-12T07:25:38.942Z,17.93
2023-05-12T07:28:07.261Z,18.02
2023-05-12T07:30:36.153Z,18.36
2023-05-12T07:33:04.878Z,18.59
2023-05-12T07:35:33.009Z,18.81
2023-05-12T07:38:03.443Z,18.87
2023-05-12T07:40:31.712Z,18.94
2023-05-12T07:42:59.908Z,18.83
2023-05-12T07:45:28.477Z,18.67
2023-05-12T07:47:58.396Z,18.63
2023-05-12T07:50:27.069Z,18.53
2023-05-12T07:52:55.549Z,18.56
2023-05-12T07:55:23.839Z,18.39
2023-05-12T07:57:52.313Z,18.49
2023-05-12T08:00:21.105Z,18.54
2023-05-12T08:02:49.404Z,18.71
2023-05-12T08:05:18.203Z,18.81
2023-05-12T08:07:47.521Z,18.93
2023-05-12T08:10:15.608Z,19.27
2023-05-12T08:12:44.225Z,19.32
2023-05-12T08:15:12.909Z,19.33
2023-05-12T08:17:41.341Z,19.58
2023-05-12T08:20:10.993Z,19.46
2023-05-12T08:22:40.179Z,19.35
2023-05-12T08:25:11.640Z,19.19
2023-05-12T08:27:41.266Z,19.18
2023-05-12T08:30:10.164Z,19.40
2023-05-12T08:32:38.826Z,19.31
2023-05-12T08:35:06.934Z,19.34
2023-05-12T08:37:35.274Z,19.43
2023-05-12T08:40:08.792Z,19.64
2023-05-12T08:42:47.063Z,19.54
2023-05-12T08:45:15.875Z,19.66
2023-05-12T08:47:46.161Z,19.79
2023-05-12T08:50:17.553Z,19.87
2023-05-12T08:52:45.796Z,20.18
2023-05-12T08:55:14.822Z,20.20
2023-05-12T08:57:45.880Z,20.09
2023-05-12T09:00:15.492Z,20.29
2023-05-12T09:02:53.301Z,20.42
2023-05-12T09:05:23.345Z,20.54
2023-05-12T09:07:53.694Z,20.55
2023-05-12T09:13:02.557Z,20.79
2023-05-12T09:15:38.825Z,20.72
2023-05-12T09:18:07.170Z,20.80
2023-05-12T09:20:35.687Z,20.56
2023-05-12T09:23:22.293Z,20.53
2023-05-12T09:26:04.010Z,20.65
2023-05-12T09:28:36.968Z,20.80
2023-05-12T09:31:34.869Z,20.97
2023-05-12T09:34:10.898Z,21.08
2023-05-12T09:36:39.180Z,20.83
2023-05-12T09:39:09.508Z,20.33
2023-05-12T09:41:42.908Z,20.30
2023-05-12T09:44:17.082Z,20.40
2023-05-12T09:46:46.123Z,20.58
2023-05-12T09:49:20.512Z,20.55
2023-05-12T09:51:59.147Z,20.69
2023-05-12T09:54:29.362Z,20.77
2023-05-12T09:57:02.821Z,20.87
2023-05-12T09:59:33.697Z,20.98
2023-05-12T10:02:05.639Z,21.36
2023-05-12T10:04:56.308Z,21.67
2023-05-12T10:07:28.036Z,21.87
2023-05-12T10:10:01.499Z,22.01
2023-05-12T10:12:30.025Z,21.74
2023-05-12T10:14:59.702Z,21.35
2023-05-12T10:17:29.229Z,21.59
2023-05-12T10:19:58.512Z,21.54
2023-05-12T10:22:28.325Z,21.46
2023-05-12T10:24:57.724Z,21.26
2023-05-12T10:27:27.457Z,21.25
2023-05-12T10:29:56.435Z,21.34
2023-05-12T10:32:24.421Z,21.38
2023-05-12T10:34:52.781Z,21.36
2023-05-12T10:37:23.615Z,21.45
2023-05-12T10:39:53.002Z,21.28
2023-05-12T10:42:26.998Z,21.26
2023-05-12T10:44:56.986Z,20.95
2023-05-12T10:47:30.931Z,20.72
2023-05-12T10:50:00.051Z,20.54
2023-05-12T10:52:28.020Z,20.58
2023-05-12T10:55:04.097Z,20.35
2023-05-12T10:57:33.524Z,20.21
2023-05-12T11:00:03.518Z,20.10
2023-05-12T11:02:34.760Z,19.98
2023-05-12T11:05:13.084Z,20.00
2023-05-12T11:07:49.633Z,20.00
2023-05-12T11:10:19.879Z,19.67
2023-05-12T11:12:50.074Z,19.47
2023-05-12T11:15:18.452Z,19.38
2023-05-12T11:17:47.049Z,19.18
2023-05-12T11:20:26.164Z,19.25
2023-05-12T11:22:55.265Z,19.07
2023-05-12T11:25:27.160Z,18.80
2023-05-12T11:27:55.917Z,18.68
2023-05-12T11:30:24.190Z,18.61
2023-05-12T11:33:02.469Z,18.56
2023-05-12T11:35:32.649Z,18.67
2023-05-12T11:38:03.106Z,18.37
2023-05-12T11:40:31.242Z,18.41
2023-05-12T11:43:10.546Z,18.43
2023-05-12T11:45:38.820Z,18.51
2023-05-12T11:48:12.077Z,18.30
2023-05-12T11:50:44.305Z,17.94
2023-05-12T11:53:15.747Z,17.98
2023-05-12T11:55:52.019Z,17.93
2023-05-12T11:58:30.866Z,17.98
2023-05-12T12:01:11.223Z,17.92
2023-05-12T12:03:48.934Z,17.89
2023-05-12T12:06:19.021Z,18.03
2023-05-12T12:08:51.500Z,18.02
2023-05-12T12:11:21.630Z,18.15
2023-05-12T12:13:56.624Z,18.24
2023-05-12T12:16:32.714Z,18.32
2023-05-12T12:19:01.104Z,18.43
2023-05-12T12:21:29.366Z,18.48
2023-05-12T12:23:57.844Z,18.65
2023-05-12T12:26:26.230Z,18.64
2023-05-12T12:28:54.611Z,18.74
2023-05-12T12:31:23.104Z,18.89
2023-05-12T12:33:51.462Z,18.91
2023-05-12T12:36:19.739Z,19.03
2023-05-12T12:38:47.916Z,18.99
2023-05-12T12:41:16.066Z,18.93
2023-05-12T12:43:44.768Z,18.92
2023-05-12T12:46:13.255Z,18.93
2023-05-12T12:48:41.420Z,18.94
2023-05-12T12:51:10.011Z,18.98
2023-05-12T12:53:38.491Z,18.96
2023-05-12T12:56:07.175Z,18.97
2023-05-12T12:58:35.463Z,19.08
2023-05-12T13:01:04.808Z,19.01
2023-05-12T13:03:32.946Z,18.95
2023-05-12T13:06:01.313Z,18.70
2023-05-12T13:08:29.792Z,18.72
2023-05-12T13:10:58.276Z,18.66
2023-05-12T13:13:26.438Z,18.60
2023-05-12T13:15:54.701Z,18.50
2023-05-12T13:18:22.951Z,18.26
2023-05-12T13:20:51.785Z,18.15
2023-05-12T13:23:20.572Z,18.17
2023-05-12T13:25:49.880Z,17.99
2023-05-12T13:28:18.368Z,17.76
2023-05-12T13:30:46.887Z,17.68
2023-05-12T13:33:15.525Z,17.72
2023-05-12T13:35:43.806Z,17.69
2023-05-12T13:38:12.079Z,17.65
2023-05-12T13:40:40.254Z,17.49
2023-05-12T13:43:08.734Z,17.29
2023-05-12T13:45:36.907Z,17.30
2023-05-12T13:48:05.738Z,17.32
2023-05-12T13:50:34.690Z,17.38
2023-05-12T13:53:02.866Z,17.36
2023-05-12T13:55:34.011Z,17.42
2023-05-12T13:58:05.153Z,17.41
2023-05-12T14:00:33.328Z,17.39
2023-05-12T14:03:01.922Z,17.42
2023-05-12T14:05:30.519Z,17.66
2023-05-12T14:07:59.182Z,17.91
2023-05-12T14:10:27.555Z,18.06
2023-05-12T14:12:55.730Z,18.06
2023-05-12T14:15:32.892Z,18.12
2023-05-12T14:18:08.828Z,18.17
2023-05-12T14:20:37.172Z,18.19
2023-05-12T14:23:05.527Z,18.20
2023-05-12T14:25:33.803Z,18.14
2023-05-12T14:28:02.215Z,18.18
2023-05-12T14:30:30.590Z,18.27
2023-05-12T14:32:58.890Z,18.30
2023-05-12T14:35:27.951Z,18.18
2023-05-12T14:37:57.002Z,18.33
2023-05-12T14:40:25.212Z,18.22
2023-05-12T14:42:54.302Z,18.24
2023-05-12T14:45:23.396Z,18.12
2023-05-12T14:47:51.823Z,17.90
2023-05-12T14:50:20.962Z,18.03
2023-05-12T14:52:49.248Z,18.20
2023-05-12T14:55:17.766Z,18.16
2023-05-12T14:57:46.407Z,18.17
2023-05-12T15:00:16.196Z,18.38
2023-05-12T15:02:45.727Z,18.49
2023-05-12T15:05:15.443Z,18.44
2023-05-12T15:07:43.529Z,18.43
2023-05-12T15:10:12.003Z,18.27
2023-05-12T15:12:40.179Z,18.03
2023-05-12T15:15:11.730Z,17.83
2023-05-12T15:17:40.177Z,17.51
2023-05-12T15:20:10.023Z,17.31
2023-05-12T15:22:38.621Z,17.22
2023-05-12T15:25:07.808Z,17.08
2023-05-12T15:27:35.979Z,16.99
2023-05-12T15:30:04.672Z,16.75
2023-05-12T15:32:32.966Z,16.61
2023-05-12T15:35:01.214Z,16.44
2023-05-12T15:37:29.395Z,16.25
2023-05-12T15:39:57.571Z,16.12
2023-05-12T15:42:30.011Z,16.02
2023-05-12T15:45:01.295Z,15.92
2023-05-12T15:47:29.781Z,15.74
2023-05-12T15:49:58.042Z,15.63
2023-05-12T15:52:28.004Z,15.55
2023-05-12T15:54:57.038Z,15.52
2023-05-12T15:57:25.339Z,15.45
2023-05-12T15:59:59.044Z,15.35
2023-05-12T16:02:27.977Z,15.25
2023-05-12T16:04:56.408Z,15.21
2023-05-12T16:07:29.601Z,15.18
2023-05-12T16:09:58.414Z,15.12
2023-05-12T16:12:26.664Z,15.00
2023-05-12T16:14:54.809Z,14.92
2023-05-12T16:17:23.013Z,14.86
2023-05-12T16:19:53.680Z,14.81
2023-05-12T16:22:22.034Z,14.76
2023-05-12T16:24:50.609Z,14.74
2023-05-12T16:27:18.885Z,14.68
2023-05-12T16:29:49.718Z,14.59
2023-05-12T16:32:18.044Z,14.59
2023-05-12T16:34:47.012Z,14.54
2023-05-12T16:37:15.368Z,14.51
2023-05-12T16:39:43.553Z,14.47
2023-05-12T16:42:11.920Z,14.46
2023-05-12T16:44:40.205Z,14.44
2023-05-12T16:47:08.781Z,14.40
2023-05-12T16:49:36.855Z,14.36
2023-05-12T16:52:05.743Z,14.33
2023-05-12T16:54:34.017Z,14.30
2023-05-12T16:57:03.336Z,14.26
2023-05-12T16:59:32.572Z,14.21
2023-05-12T17:02:02.170Z,14.16
2023-05-12T17:04:30.715Z,14.11
2023-05-12T17:06:58.778Z,14.08
2023-05-12T17:09:27.363Z,14.05
2023-05-12T17:11:55.544Z,14.00
2023-05-12T17:14:23.830Z,13.96
2023-05-12T17:16:51.997Z,13.93
2023-05-12T17:19:21.550Z,13.88
2023-05-12T17:21:49.673Z,13.85
2023-05-12T17:24:18.110Z,13.82
2023-05-12T17:26:46.327Z,13.77
2023-05-12T17:29:15.143Z,13.72
2023-05-12T17:31:43.367Z,13.70
2023-05-12T17:34:11.877Z,13.67
2023-05-12T17:36:40.157Z,13.64
2023-05-12T17:39:08.344Z,13.61
2023-05-12T17:41:36.396Z,13.56
2023-05-12T17:44:05.080Z,13.52
2023-05-12T17:46:33.931Z,13.49
2023-05-12T17:49:02.144Z,13.46
2023-05-12T17:51:30.221Z,13.43
2023-05-12T17:53:58.403Z,13.39
2023-05-12T17:56:26.770Z,13.34
2023-05-12T17:58:55.147Z,13.26
2023-05-12T18:01:23.355Z,13.19
2023-05-12T18:03:51.704Z,13.10
2023-05-12T18:06:19.878Z,13.10
2023-05-12T18:08:48.058Z,13.09
2023-05-12T18:11:16.429Z,13.02
2023-05-12T18:13:45.229Z,12.98
2023-05-12T18:16:27.548Z,12.95
2023-05-12T18:18:57.180Z,12.92
2023-05-12T18:21:26.047Z,12.91
2023-05-12T18:23:54.416Z,12.91
2023-05-12T18:26:22.889Z,12.86
2023-05-12T18:28:51.057Z,12.82
2023-05-12T18:31:22.230Z,12.77
2023-05-12T18:33:51.011Z,12.72
2023-05-12T18:36:19.578Z,12.66
2023-05-12T18:38:48.265Z,12.60
2023-05-12T18:41:16.850Z,12.53
2023-05-12T18:43:45.023Z,12.48
2023-05-12T18:46:13.652Z,12.49
2023-05-12T18:48:41.995Z,12.50
2023-05-12T18:51:10.360Z,12.50
2023-05-12T18:53:38.428Z,12.49
2023-05-12T18:56:06.500Z,12.47
2023-05-12T18:58:34.676Z,12.47
2023-05-12T19:01:03.166Z,12.46
2023-05-12T19:03:32.573Z,12.46
2023-05-12T19:06:01.379Z,12.45
2023-05-12T19:08:29.465Z,12.43
2023-05-12T19:10:57.701Z,12.41
2023-05-12T19:13:25.983Z,12.39
2023-05-12T19:15:54.177Z,12.34
2023-05-12T19:18:22.646Z,12.28
2023-05-12T19:20:50.699Z,12.23
2023-05-12T19:23:18.777Z,12.17
2023-05-12T19:25:46.846Z,12.13
2023-05-12T19:28:14.939Z,12.15
2023-05-12T19:30:43.096Z,12.14
2023-05-12T19:33:11.542Z,12.12
2023-05-12T19:35:39.961Z,12.09
2023-05-12T19:38:08.051Z,12.09
2023-05-12T19:40:36.200Z,12.08
2023-05-12T19:43:05.306Z,12.02
2023-05-12T19:45:33.490Z,11.93
2023-05-12T19:48:02.595Z,11.87
2023-05-12T19:50:30.944Z,11.82
2023-05-12T19:52:59.424Z,11.78
2023-05-12T19:55:27.505Z,11.75
2023-05-12T19:57:56.691Z,11.72
2023-05-12T20:00:26.812Z,11.74
2023-05-12T20:02:55.043Z,11.72
2023-05-12T20:05:23.570Z,11.67
2023-05-12T20:07:52.383Z,11.60
2023-05-12T20:10:20.847Z,11.52
2023-05-12T20:12:48.916Z,11.42
2023-05-12T20:15:18.788Z,11.32
2023-05-12T20:17:47.086Z,11.25
2023-05-12T20:20:15.285Z,11.21
2023-05-12T20:22:43.454Z,11.16
2023-05-12T20:25:16.152Z,11.14
2023-05-12T20:27:45.334Z,11.17
2023-05-12T20:30:13.923Z,11.18
2023-05-12T20:32:42.249Z,11.19
2023-05-12T20:35:10.466Z,11.18
2023-05-12T20:37:40.793Z,11.19
2023-05-12T20:40:10.901Z,11.19
2023-05-12T20:42:39.087Z,11.19
2023-05-12T20:45:08.093Z,11.20
2023-05-12T20:47:37.526Z,11.19
2023-05-12T20:50:07.073Z,11.17
2023-05-12T20:52:39.669Z,11.10
2023-05-12T20:55:09.267Z,11.05
2023-05-12T20:57:38.056Z,11.03
2023-05-12T21:00:10.493Z,11.00
2023-05-12T21:02:38.781Z,10.96
2023-05-12T21:05:08.021Z,10.92
2023-05-12T21:07:36.599Z,10.90
2023-05-12T21:10:05.267Z,10.87
2023-05-12T21:12:33.673Z,10.82
2023-05-12T21:15:02.042Z,10.75
2023-05-12T21:17:30.042Z,10.67
2023-05-12T21:19:58.180Z,10.62
2023-05-12T21:22:26.977Z,10.58
2023-05-12T21:24:55.248Z,10.61
2023-05-12T21:27:23.533Z,10.60
2023-05-12T21:29:51.695Z,10.57
2023-05-12T21:32:19.771Z,10.57
2023-05-12T21:34:47.948Z,10.60
2023-05-12T21:37:16.633Z,10.61
2023-05-12T21:39:44.807Z,10.62
2023-05-12T21:42:12.979Z,10.62
2023-05-12T21:44:41.157Z,10.59
2023-05-12T21:47:09.839Z,10.55
2023-05-12T21:49:38.013Z,10.52
2023-05-12T21:52:06.699Z,10.52
2023-05-12T21:54:35.176Z,10.58
2023-05-12T21:57:03.358Z,10.61
2023-05-12T21:59:31.731Z,10.61
2023-05-12T22:02:00.416Z,10.61
2023-05-12T22:04:28.703Z,10.64
2023-05-12T22:06:57.101Z,10.67
2023-05-12T22:09:25.451Z,10.67
2023-05-12T22:11:53.942Z,10.66
2023-05-12T22:14:22.320Z,10.64
2023-05-12T22:16:50.630Z,10.62
2023-05-12T22:19:19.682Z,10.59
2023-05-12T22:21:47.970Z,10.60
2023-05-12T22:24:16.460Z,10.65
2023-05-12T22:26:44.627Z,10.67
2023-05-12T22:29:12.801Z,10.67
2023-05-12T22:31:42.620Z,10.68
2023-05-12T22:34:10.889Z,10.70
2023-05-12T22:36:38.984Z,10.72
2023-05-12T22:39:08.153Z,10.73
2023-05-12T22:41:36.638Z,10.71
2023-05-12T22:44:05.323Z,10.68
2023-05-12T22:46:33.507Z,10.63
2023-05-12T22:49:01.672Z,10.58
2023-05-12T22:51:29.847Z,10.52
2023-05-12T22:53:58.020Z,10.49
2023-05-12T22:56:26.712Z,10.45
2023-05-12T22:58:54.891Z,10.40
2023-05-12T23:01:23.050Z,10.34
2023-05-12T23:03:51.254Z,10.28
2023-05-12T23:06:19.408Z,10.20
2023-05-12T23:08:47.997Z,10.11
2023-05-12T23:11:16.177Z,10.02
2023-05-12T23:13:44.544Z,9.93
2023-05-12T23:16:12.962Z,9.84
2023-05-12T23:18:41.551Z,9.80
2023-05-12T23:21:09.779Z,9.74
2023-05-12T23:23:38.068Z,9.65
2023-05-12T23:26:06.333Z,9.54
2023-05-12T23:28:34.508Z,9.46
2023-05-12T23:31:03.708Z,9.39
2023-05-12T23:33:32.163Z,9.33
2023-05-12T23:36:00.463Z,9.25
2023-05-12T23:38:28.639Z,9.16
2023-05-12T23:40:56.812Z,9.08
2023-05-12T23:43:24.987Z,9.05
2023-05-12T23:45:53.401Z,8.98
2023-05-12T23:48:21.639Z,8.91
2023-05-12T23:50:49.812Z,8.83
2023-05-12T23:53:17.883Z,8.79
2023-05-12T23:55:46.171Z,8.76
2023-05-12T23:58:14.237Z,8.73
